sensor_id;sensor_type;location;lat;lon;timestamp;P1;durP1;ratioP1;P2;durP2;ratioP2
27889;SDS011;15238;49.082;9.102;2023-03-21T00:01:53;6.82;;;4.20;;
27889;SDS011;15238;49.082;9.102;2023-03-21T00:03:53;7.95;;;3.70;;
27889;SDS011;15238;49.082;9.102;2023-03-21T00:05:54;4.80;;;4.05;;
27889;SDS011;15238;49.082;9.102;2023-03-21T00:07:55;6.32;;;3.80;;
27889;SDS011;15238;49.082;9.102;2023-03-21T00:09:56;6.43;;;3.58;;
27889;SDS011;15238;49.082;9.102;2023-03-21T00:11:56;7.03;;;4.40;;
27889;SDS011;15238;49.082;9.102;2023-03-21T00:14:00;6.72;;;4.40;;
27889;SDS011;15238;49.082;9.102;2023-03-21T00:16:04;5.72;;;4.10;;
27889;SDS011;15238;49.082;9.102;2023-03-21T00:18:16;6.20;;;4.18;;
27889;SDS011;15238;49.082;9.102;2023-03-21T00:20:16;5.70;;;4.28;;
27889;SDS011;15238;49.082;9.102;2023-03-21T00:22:17;9.35;;;4.05;;
27889;SDS011;15238;49.082;9.102;2023-03-21T00:24:17;8.40;;;4.97;;
27889;SDS011;15238;49.082;9.102;2023-03-21T00:26:18;9.30;;;4.82;;
27889;SDS011;15238;49.082;9.102;2023-03-21T00:28:18;5.40;;;4.15;;
27889;SDS011;15238;49.082;9.102;2023-03-21T00:30:20;6.38;;;3.92;;
27889;SDS011;15238;49.082;9.102;2023-03-21T00:32:20;6.38;;;4.13;;
27889;SDS011;15238;49.082;9.102;2023-03-21T00:34:21;8.00;;;4.40;;
27889;SDS011;15238;49.082;9.102;2023-03-21T00:36:22;7.30;;;4.18;;
27889;SDS011;15238;49.082;9.102;2023-03-21T00:38:24;7.75;;;4.30;;
27889;SDS011;15238;49.082;9.102;2023-03-21T00:40:25;7.35;;;4.05;;
27889;SDS011;15238;49.082;9.102;2023-03-21T00:42:25;7.25;;;4.30;;
27889;SDS011;15238;49.082;9.102;2023-03-21T00:44:26;6.90;;;4.18;;
27889;SDS011;15238;49.082;9.102;2023-03-21T00:46:27;6.13;;;4.13;;
27889;SDS011;15238;49.082;9.102;2023-03-21T00:48:28;8.13;;;4.38;;
27889;SDS011;15238;49.082;9.102;2023-03-21T00:50:28;7.88;;;4.25;;
27889;SDS011;15238;49.082;9.102;2023-03-21T00:52:29;6.38;;;3.92;;
27889;SDS011;15238;49.082;9.102;2023-03-21T00:54:30;5.80;;;4.13;;
27889;SDS011;15238;49.082;9.102;2023-03-21T00:56:31;8.43;;;4.22;;
27889;SDS011;15238;49.082;9.102;2023-03-21T00:58:32;5.22;;;3.42;;
27889;SDS011;15238;49.082;9.102;2023-03-21T01:00:32;8.77;;;4.32;;
27889;SDS011;15238;49.082;9.102;2023-03-21T01:02:36;6.60;;;4.20;;
27889;SDS011;15238;49.082;9.102;2023-03-21T01:04:36;5.25;;;3.90;;
27889;SDS011;15238;49.082;9.102;2023-03-21T01:06:37;4.82;;;3.95;;
27889;SDS011;15238;49.082;9.102;2023-03-21T01:08:39;7.55;;;4.30;;
27889;SDS011;15238;49.082;9.102;2023-03-21T01:10:42;5.93;;;3.72;;
27889;SDS011;15238;49.082;9.102;2023-03-21T01:12:43;6.53;;;3.95;;
27889;SDS011;15238;49.082;9.102;2023-03-21T01:14:44;6.97;;;3.85;;
27889;SDS011;15238;49.082;9.102;2023-03-21T01:16:44;9.10;;;4.05;;
27889;SDS011;15238;49.082;9.102;2023-03-21T01:18:45;5.68;;;3.35;;
27889;SDS011;15238;49.082;9.102;2023-03-21T01:20:46;7.57;;;4.28;;
27889;SDS011;15238;49.082;9.102;2023-03-21T01:22:47;7.88;;;3.47;;
27889;SDS011;15238;49.082;9.102;2023-03-21T01:24:48;7.93;;;3.30;;
27889;SDS011;15238;49.082;9.102;2023-03-21T01:26:48;7.03;;;3.47;;
27889;SDS011;15238;49.082;9.102;2023-03-21T01:28:49;5.13;;;3.30;;
27889;SDS011;15238;49.082;9.102;2023-03-21T01:30:50;6.85;;;3.40;;
27889;SDS011;15238;49.082;9.102;2023-03-21T01:32:51;4.00;;;3.15;;
27889;SDS011;15238;49.082;9.102;2023-03-21T01:34:52;4.63;;;3.40;;
27889;SDS011;15238;49.082;9.102;2023-03-21T01:36:52;5.85;;;2.80;;
27889;SDS011;15238;49.082;9.102;2023-03-21T01:38:53;6.15;;;2.90;;
27889;SDS011;15238;49.082;9.102;2023-03-21T01:40:53;3.83;;;2.70;;
27889;SDS011;15238;49.082;9.102;2023-03-21T01:42:54;4.78;;;3.25;;
27889;SDS011;15238;49.082;9.102;2023-03-21T01:47:03;4.28;;;2.95;;
27889;SDS011;15238;49.082;9.102;2023-03-21T01:49:06;5.70;;;3.42;;
27889;SDS011;15238;49.082;9.102;2023-03-21T01:51:09;5.88;;;2.88;;
27889;SDS011;15238;49.082;9.102;2023-03-21T01:53:11;6.28;;;2.72;;
27889;SDS011;15238;49.082;9.102;2023-03-21T01:55:13;5.28;;;3.10;;
27889;SDS011;15238;49.082;9.102;2023-03-21T01:57:15;5.75;;;3.08;;
27889;SDS011;15238;49.082;9.102;2023-03-21T01:59:30;6.63;;;3.30;;
27889;SDS011;15238;49.082;9.102;2023-03-21T02:01:39;6.38;;;3.40;;
27889;SDS011;15238;49.082;9.102;2023-03-21T02:03:41;4.68;;;3.15;;
27889;SDS011;15238;49.082;9.102;2023-03-21T02:06:51;7.60;;;3.35;;
27889;SDS011;15238;49.082;9.102;2023-03-21T02:08:43;5.60;;;3.10;;
27889;SDS011;15238;49.082;9.102;2023-03-21T02:10:44;8.93;;;3.00;;
27889;SDS011;15238;49.082;9.102;2023-03-21T02:12:47;6.72;;;3.30;;
27889;SDS011;15238;49.082;9.102;2023-03-21T02:14:48;4.88;;;2.90;;
27889;SDS011;15238;49.082;9.102;2023-03-21T02:17:11;6.95;;;3.10;;
27889;SDS011;15238;49.082;9.102;2023-03-21T02:26:55;9.70;;;3.35;;
27889;SDS011;15238;49.082;9.102;2023-03-21T02:31:47;9.48;;;3.83;;
27889;SDS011;15238;49.082;9.102;2023-03-21T02:37:02;6.20;;;3.70;;
27889;SDS011;15238;49.082;9.102;2023-03-21T02:39:25;6.55;;;3.42;;
27889;SDS011;15238;49.082;9.102;2023-03-21T02:43:50;8.00;;;4.03;;
27889;SDS011;15238;49.082;9.102;2023-03-21T02:46:00;7.95;;;4.07;;
27889;SDS011;15238;49.082;9.102;2023-03-21T02:48:10;6.80;;;3.92;;
27889;SDS011;15238;49.082;9.102;2023-03-21T02:50:15;8.15;;;3.80;;
27889;SDS011;15238;49.082;9.102;2023-03-21T02:52:26;6.38;;;4.00;;
27889;SDS011;15238;49.082;9.102;2023-03-21T02:54:29;6.00;;;3.75;;
27889;SDS011;15238;49.082;9.102;2023-03-21T02:56:32;6.20;;;3.97;;
27889;SDS011;15238;49.082;9.102;2023-03-21T02:58:33;6.20;;;3.83;;
27889;SDS011;15238;49.082;9.102;2023-03-21T03:00:36;8.32;;;3.53;;
27889;SDS011;15238;49.082;9.102;2023-03-21T03:02:38;6.63;;;4.05;;
27889;SDS011;15238;49.082;9.102;2023-03-21T03:04:40;5.70;;;3.60;;
27889;SDS011;15238;49.082;9.102;2023-03-21T03:06:44;7.38;;;3.65;;
27889;SDS011;15238;49.082;9.102;2023-03-21T03:09:12;7.38;;;4.00;;
27889;SDS011;15238;49.082;9.102;2023-03-21T03:11:40;6.72;;;4.10;;
27889;SDS011;15238;49.082;9.102;2023-03-21T03:22:54;5.60;;;3.90;;
27889;SDS011;15238;49.082;9.102;2023-03-21T03:26:58;5.25;;;3.35;;
27889;SDS011;15238;49.082;9.102;2023-03-21T03:29:17;7.53;;;3.03;;
27889;SDS011;15238;49.082;9.102;2023-03-21T03:31:24;5.68;;;3.22;;
27889;SDS011;15238;49.082;9.102;2023-03-21T03:33:30;10.85;;;3.65;;
27889;SDS011;15238;49.082;9.102;2023-03-21T03:35:33;6.78;;;2.92;;
27889;SDS011;15238;49.082;9.102;2023-03-21T03:37:34;6.38;;;2.88;;
27889;SDS011;15238;49.082;9.102;2023-03-21T03:39:39;5.28;;;3.13;;
27889;SDS011;15238;49.082;9.102;2023-03-21T03:41:52;14.30;;;3.30;;
27889;SDS011;15238;49.082;9.102;2023-03-21T03:43:58;6.90;;;3.50;;
27889;SDS011;15238;49.082;9.102;2023-03-21T03:46:02;5.90;;;3.20;;
27889;SDS011;15238;49.082;9.102;2023-03-21T03:48:17;6.63;;;2.78;;
27889;SDS011;15238;49.082;9.102;2023-03-21T03:52:35;4.60;;;3.45;;
27889;SDS011;15238;49.082;9.102;2023-03-21T03:54:39;5.75;;;3.45;;
27889;SDS011;15238;49.082;9.102;2023-03-21T03:56:43;10.60;;;3.67;;
27889;SDS011;15238;49.082;9.102;2023-03-21T03:58:44;5.35;;;3.50;;
27889;SDS011;15238;49.082;9.102;2023-03-21T04:00:45;5.80;;;3.65;;
27889;SDS011;15238;49.082;9.102;2023-03-21T04:02:46;6.65;;;3.50;;
27889;SDS011;15238;49.082;9.102;2023-03-21T04:04:46;7.03;;;3.80;;
27889;SDS011;15238;49.082;9.102;2023-03-21T04:06:51;7.10;;;3.63;;
27889;SDS011;15238;49.082;9.102;2023-03-21T04:08:52;10.95;;;3.65;;
27889;SDS011;15238;49.082;9.102;2023-03-21T04:10:52;8.05;;;3.58;;
27889;SDS011;15238;49.082;9.102;2023-03-21T04:12:53;4.72;;;3.15;;
27889;SDS011;15238;49.082;9.102;2023-03-21T04:14:54;6.47;;;3.20;;
27889;SDS011;15238;49.082;9.102;2023-03-21T04:16:54;7.70;;;3.47;;
27889;SDS011;15238;49.082;9.102;2023-03-21T04:18:55;5.93;;;3.88;;
27889;SDS011;15238;49.082;9.102;2023-03-21T04:20:56;5.70;;;3.47;;
27889;SDS011;15238;49.082;9.102;2023-03-21T04:22:57;9.02;;;4.25;;
27889;SDS011;15238;49.082;9.102;2023-03-21T04:24:57;6.90;;;3.78;;
27889;SDS011;15238;49.082;9.102;2023-03-21T04:26:58;6.88;;;3.90;;
27889;SDS011;15238;49.082;9.102;2023-03-21T04:28:59;5.90;;;4.05;;
27889;SDS011;15238;49.082;9.102;2023-03-21T04:31:01;6.53;;;3.90;;
27889;SDS011;15238;49.082;9.102;2023-03-21T04:33:04;9.45;;;4.93;;
27889;SDS011;15238;49.082;9.102;2023-03-21T04:35:05;9.18;;;4.20;;
27889;SDS011;15238;49.082;9.102;2023-03-21T04:37:07;9.10;;;4.85;;
27889;SDS011;15238;49.082;9.102;2023-03-21T04:39:10;9.98;;;5.18;;
27889;SDS011;15238;49.082;9.102;2023-03-21T04:41:12;9.85;;;5.03;;
27889;SDS011;15238;49.082;9.102;2023-03-21T04:43:12;8.13;;;4.85;;
27889;SDS011;15238;49.082;9.102;2023-03-21T04:45:13;9.98;;;4.80;;
27889;SDS011;15238;49.082;9.102;2023-03-21T04:47:15;7.65;;;4.50;;
27889;SDS011;15238;49.082;9.102;2023-03-21T04:49:19;8.82;;;5.40;;
27889;SDS011;15238;49.082;9.102;2023-03-21T04:51:20;10.23;;;6.05;;
27889;SDS011;15238;49.082;9.102;2023-03-21T04:53:20;7.60;;;4.80;;
27889;SDS011;15238;49.082;9.102;2023-03-21T04:55:21;8.48;;;5.50;;
27889;SDS011;15238;49.082;9.102;2023-03-21T04:57:22;8.55;;;5.60;;
27889;SDS011;15238;49.082;9.102;2023-03-21T04:59:22;7.47;;;5.15;;
27889;SDS011;15238;49.082;9.102;2023-03-21T05:01:23;9.88;;;5.22;;
27889;SDS011;15238;49.082;9.102;2023-03-21T05:03:24;8.23;;;4.85;;
27889;SDS011;15238;49.082;9.102;2023-03-21T05:05:27;8.30;;;4.65;;
27889;SDS011;15238;49.082;9.102;2023-03-21T05:07:28;9.80;;;5.88;;
27889;SDS011;15238;49.082;9.102;2023-03-21T05:09:30;9.02;;;4.85;;
27889;SDS011;15238;49.082;9.102;2023-03-21T05:11:31;14.57;;;5.40;;
27889;SDS011;15238;49.082;9.102;2023-03-21T05:13:34;8.48;;;5.15;;
27889;SDS011;15238;49.082;9.102;2023-03-21T05:15:35;7.72;;;4.55;;
27889;SDS011;15238;49.082;9.102;2023-03-21T05:17:35;9.98;;;4.75;;
27889;SDS011;15238;49.082;9.102;2023-03-21T05:19:36;9.35;;;5.32;;
27889;SDS011;15238;49.082;9.102;2023-03-21T05:21:39;6.70;;;4.82;;
27889;SDS011;15238;49.082;9.102;2023-03-21T05:23:40;8.18;;;5.28;;
27889;SDS011;15238;49.082;9.102;2023-03-21T05:25:41;10.63;;;5.28;;
27889;SDS011;15238;49.082;9.102;2023-03-21T05:27:41;7.95;;;5.05;;
27889;SDS011;15238;49.082;9.102;2023-03-21T05:29:44;6.70;;;4.50;;
27889;SDS011;15238;49.082;9.102;2023-03-21T05:31:44;10.07;;;5.68;;
27889;SDS011;15238;49.082;9.102;2023-03-21T05:33:45;5.97;;;4.53;;
27889;SDS011;15238;49.082;9.102;2023-03-21T05:35:48;9.25;;;5.28;;
27889;SDS011;15238;49.082;9.102;2023-03-21T05:37:50;8.38;;;5.25;;
27889;SDS011;15238;49.082;9.102;2023-03-21T05:39:50;8.70;;;5.28;;
27889;SDS011;15238;49.082;9.102;2023-03-21T05:41:51;9.00;;;5.35;;
27889;SDS011;15238;49.082;9.102;2023-03-21T05:43:52;7.82;;;5.45;;
27889;SDS011;15238;49.082;9.102;2023-03-21T05:45:52;11.32;;;5.28;;
27889;SDS011;15238;49.082;9.102;2023-03-21T05:47:53;8.75;;;5.60;;
27889;SDS011;15238;49.082;9.102;2023-03-21T05:49:53;7.22;;;5.00;;
27889;SDS011;15238;49.082;9.102;2023-03-21T05:51:54;8.40;;;5.53;;
27889;SDS011;15238;49.082;9.102;2023-03-21T05:53:55;10.25;;;5.40;;
27889;SDS011;15238;49.082;9.102;2023-03-21T05:55:55;11.07;;;5.82;;
27889;SDS011;15238;49.082;9.102;2023-03-21T05:57:56;7.50;;;5.00;;
27889;SDS011;15238;49.082;9.102;2023-03-21T05:59:56;8.63;;;4.95;;
27889;SDS011;15238;49.082;9.102;2023-03-21T06:01:57;7.35;;;5.22;;
27889;SDS011;15238;49.082;9.102;2023-03-21T06:03:57;8.77;;;5.53;;
27889;SDS011;15238;49.082;9.102;2023-03-21T06:05:58;10.23;;;5.20;;
27889;SDS011;15238;49.082;9.102;2023-03-21T06:07:58;8.93;;;4.68;;
27889;SDS011;15238;49.082;9.102;2023-03-21T06:09:59;10.52;;;5.13;;
27889;SDS011;15238;49.082;9.102;2023-03-21T06:12:00;6.78;;;4.57;;
27889;SDS011;15238;49.082;9.102;2023-03-21T06:14:00;8.75;;;5.03;;
27889;SDS011;15238;49.082;9.102;2023-03-21T06:16:01;7.95;;;4.90;;
27889;SDS011;15238;49.082;9.102;2023-03-21T06:18:02;7.63;;;4.97;;
27889;SDS011;15238;49.082;9.102;2023-03-21T06:20:03;8.57;;;4.90;;
27889;SDS011;15238;49.082;9.102;2023-03-21T06:22:05;10.50;;;4.97;;
27889;SDS011;15238;49.082;9.102;2023-03-21T06:24:06;10.30;;;5.10;;
27889;SDS011;15238;49.082;9.102;2023-03-21T06:26:07;11.73;;;5.20;;
27889;SDS011;15238;49.082;9.102;2023-03-21T06:28:07;7.72;;;5.00;;
27889;SDS011;15238;49.082;9.102;2023-03-21T06:30:08;11.93;;;5.05;;
27889;SDS011;15238;49.082;9.102;2023-03-21T06:32:09;6.97;;;4.82;;
27889;SDS011;15238;49.082;9.102;2023-03-21T06:34:10;8.98;;;4.88;;
27889;SDS011;15238;49.082;9.102;2023-03-21T06:36:10;7.70;;;4.95;;
27889;SDS011;15238;49.082;9.102;2023-03-21T06:38:11;6.18;;;4.07;;
27889;SDS011;15238;49.082;9.102;2023-03-21T06:40:11;7.60;;;5.05;;
27889;SDS011;15238;49.082;9.102;2023-03-21T06:42:12;8.85;;;4.50;;
27889;SDS011;15238;49.082;9.102;2023-03-21T06:44:13;7.10;;;4.22;;
27889;SDS011;15238;49.082;9.102;2023-03-21T06:46:14;8.23;;;4.63;;
27889;SDS011;15238;49.082;9.102;2023-03-21T06:48:14;7.90;;;4.25;;
27889;SDS011;15238;49.082;9.102;2023-03-21T06:50:15;10.07;;;4.63;;
27889;SDS011;15238;49.082;9.102;2023-03-21T06:52:15;16.73;;;4.65;;
27889;SDS011;15238;49.082;9.102;2023-03-21T06:54:16;13.98;;;4.88;;
27889;SDS011;15238;49.082;9.102;2023-03-21T06:56:17;15.68;;;4.90;;
27889;SDS011;15238;49.082;9.102;2023-03-21T06:58:19;7.97;;;4.40;;
27889;SDS011;15238;49.082;9.102;2023-03-21T07:00:20;11.52;;;4.40;;
27889;SDS011;15238;49.082;9.102;2023-03-21T07:02:22;8.60;;;4.13;;
27889;SDS011;15238;49.082;9.102;2023-03-21T07:04:22;6.63;;;4.28;;
27889;SDS011;15238;49.082;9.102;2023-03-21T07:06:23;6.85;;;3.92;;
27889;SDS011;15238;49.082;9.102;2023-03-21T07:08:27;6.97;;;4.10;;
27889;SDS011;15238;49.082;9.102;2023-03-21T07:10:28;6.78;;;4.13;;
27889;SDS011;15238;49.082;9.102;2023-03-21T07:12:29;6.53;;;4.05;;
27889;SDS011;15238;49.082;9.102;2023-03-21T07:14:33;6.18;;;4.10;;
27889;SDS011;15238;49.082;9.102;2023-03-21T07:16:33;6.97;;;4.10;;
27889;SDS011;15238;49.082;9.102;2023-03-21T07:18:34;7.43;;;4.22;;
27889;SDS011;15238;49.082;9.102;2023-03-21T07:20:35;7.35;;;4.45;;
27889;SDS011;15238;49.082;9.102;2023-03-21T07:22:38;5.70;;;3.92;;
27889;SDS011;15238;49.082;9.102;2023-03-21T07:24:39;6.15;;;4.38;;
27889;SDS011;15238;49.082;9.102;2023-03-21T07:26:40;7.53;;;4.03;;
27889;SDS011;15238;49.082;9.102;2023-03-21T07:28:40;8.85;;;4.03;;
27889;SDS011;15238;49.082;9.102;2023-03-21T07:30:41;6.30;;;3.72;;
27889;SDS011;15238;49.082;9.102;2023-03-21T07:32:43;4.30;;;3.28;;
27889;SDS011;15238;49.082;9.102;2023-03-21T07:34:44;8.75;;;3.92;;
27889;SDS011;15238;49.082;9.102;2023-03-21T07:36:45;6.53;;;3.60;;
27889;SDS011;15238;49.082;9.102;2023-03-21T07:38:45;6.10;;;3.45;;
27889;SDS011;15238;49.082;9.102;2023-03-21T07:40:46;4.38;;;3.30;;
27889;SDS011;15238;49.082;9.102;2023-03-21T07:42:47;7.20;;;3.83;;
27889;SDS011;15238;49.082;9.102;2023-03-21T07:44:49;7.88;;;3.42;;
27889;SDS011;15238;49.082;9.102;2023-03-21T07:46:51;5.53;;;3.22;;
27889;SDS011;15238;49.082;9.102;2023-03-21T07:48:52;5.40;;;3.53;;
27889;SDS011;15238;49.082;9.102;2023-03-21T07:50:52;4.93;;;3.42;;
27889;SDS011;15238;49.082;9.102;2023-03-21T07:52:53;7.95;;;3.88;;
27889;SDS011;15238;49.082;9.102;2023-03-21T07:54:53;6.63;;;3.65;;
27889;SDS011;15238;49.082;9.102;2023-03-21T07:56:54;5.45;;;3.05;;
27889;SDS011;15238;49.082;9.102;2023-03-21T07:58:55;6.82;;;3.03;;
27889;SDS011;15238;49.082;9.102;2023-03-21T08:00:57;5.18;;;2.88;;
27889;SDS011;15238;49.082;9.102;2023-03-21T08:02:58;7.22;;;2.42;;
27889;SDS011;15238;49.082;9.102;2023-03-21T08:04:58;5.18;;;2.55;;
27889;SDS011;15238;49.082;9.102;2023-03-21T08:06:59;4.03;;;2.30;;
27889;SDS011;15238;49.082;9.102;2023-03-21T08:09:00;5.30;;;2.30;;
27889;SDS011;15238;49.082;9.102;2023-03-21T08:11:02;9.18;;;2.10;;
27889;SDS011;15238;49.082;9.102;2023-03-21T08:13:03;7.95;;;3.08;;
27889;SDS011;15238;49.082;9.102;2023-03-21T08:15:04;8.90;;;3.05;;
27889;SDS011;15238;49.082;9.102;2023-03-21T08:17:05;3.67;;;2.63;;
27889;SDS011;15238;49.082;9.102;2023-03-21T08:19:08;4.63;;;2.40;;
27889;SDS011;15238;49.082;9.102;2023-03-21T08:21:08;4.32;;;2.95;;
27889;SDS011;15238;49.082;9.102;2023-03-21T08:23:09;4.85;;;2.65;;
27889;SDS011;15238;49.082;9.102;2023-03-21T08:25:10;4.40;;;2.80;;
27889;SDS011;15238;49.082;9.102;2023-03-21T08:27:16;8.73;;;3.03;;
27889;SDS011;15238;49.082;9.102;2023-03-21T08:29:17;4.07;;;2.95;;
27889;SDS011;15238;49.082;9.102;2023-03-21T08:31:17;6.13;;;2.95;;
27889;SDS011;15238;49.082;9.102;2023-03-21T08:33:20;6.03;;;2.50;;
27889;SDS011;15238;49.082;9.102;2023-03-21T08:35:20;5.22;;;1.92;;
27889;SDS011;15238;49.082;9.102;2023-03-21T08:37:21;3.60;;;1.80;;
27889;SDS011;15238;49.082;9.102;2023-03-21T08:39:22;6.05;;;2.55;;
27889;SDS011;15238;49.082;9.102;2023-03-21T08:41:23;3.60;;;2.20;;
27889;SDS011;15238;49.082;9.102;2023-03-21T08:43:25;4.72;;;2.08;;
27889;SDS011;15238;49.082;9.102;2023-03-21T08:45:26;4.80;;;1.40;;
27889;SDS011;15238;49.082;9.102;2023-03-21T08:47:26;5.72;;;1.70;;
27889;SDS011;15238;49.082;9.102;2023-03-21T08:49:27;3.90;;;2.00;;
27889;SDS011;15238;49.082;9.102;2023-03-21T08:51:27;4.43;;;1.77;;
27889;SDS011;15238;49.082;9.102;2023-03-21T08:53:28;4.68;;;1.55;;
27889;SDS011;15238;49.082;9.102;2023-03-21T08:55:29;2.47;;;1.33;;
27889;SDS011;15238;49.082;9.102;2023-03-21T08:57:32;1.92;;;1.23;;
27889;SDS011;15238;49.082;9.102;2023-03-21T08:59:32;2.45;;;1.35;;
27889;SDS011;15238;49.082;9.102;2023-03-21T09:01:33;3.50;;;1.35;;
27889;SDS011;15238;49.082;9.102;2023-03-21T09:03:34;2.75;;;1.35;;
27889;SDS011;15238;49.082;9.102;2023-03-21T09:05:34;3.80;;;1.80;;
27889;SDS011;15238;49.082;9.102;2023-03-21T09:07:36;5.50;;;2.00;;
27889;SDS011;15238;49.082;9.102;2023-03-21T09:09:37;3.28;;;1.48;;
27889;SDS011;15238;49.082;9.102;2023-03-21T09:11:38;2.45;;;1.40;;
27889;SDS011;15238;49.082;9.102;2023-03-21T09:13:39;4.88;;;1.83;;
27889;SDS011;15238;49.082;9.102;2023-03-21T09:15:39;5.10;;;1.33;;
27889;SDS011;15238;49.082;9.102;2023-03-21T09:17:40;3.72;;;1.50;;
27889;SDS011;15238;49.082;9.102;2023-03-21T09:19:48;4.70;;;1.10;;
27889;SDS011;15238;49.082;9.102;2023-03-21T09:21:49;3.70;;;1.10;;
27889;SDS011;15238;49.082;9.102;2023-03-21T09:23:52;2.00;;;1.10;;
27889;SDS011;15238;49.082;9.102;2023-03-21T09:25:55;2.50;;;0.90;;
27889;SDS011;15238;49.082;9.102;2023-03-21T09:27:55;4.72;;;1.75;;
27889;SDS011;15238;49.082;9.102;2023-03-21T09:29:57;14.68;;;2.38;;
27889;SDS011;15238;49.082;9.102;2023-03-21T09:31:59;2.45;;;1.10;;
27889;SDS011;15238;49.082;9.102;2023-03-21T09:34:00;2.88;;;0.80;;
27889;SDS011;15238;49.082;9.102;2023-03-21T09:36:01;6.03;;;1.20;;
27889;SDS011;15238;49.082;9.102;2023-03-21T09:38:05;3.65;;;1.25;;
27889;SDS011;15238;49.082;9.102;2023-03-21T09:40:13;2.25;;;1.10;;
27889;SDS011;15238;49.082;9.102;2023-03-21T09:44:43;1.75;;;0.85;;
27889;SDS011;15238;49.082;9.102;2023-03-21T09:49:24;2.22;;;0.98;;
27889;SDS011;15238;49.082;9.102;2023-03-21T09:51:31;2.63;;;1.27;;
27889;SDS011;15238;49.082;9.102;2023-03-21T09:53:36;2.45;;;1.25;;
27889;SDS011;15238;49.082;9.102;2023-03-21T09:55:40;2.85;;;1.20;;
27889;SDS011;15238;49.082;9.102;2023-03-21T09:57:41;7.05;;;1.50;;
27889;SDS011;15238;49.082;9.102;2023-03-21T09:59:44;3.25;;;1.30;;
27889;SDS011;15238;49.082;9.102;2023-03-21T10:01:46;4.93;;;1.60;;
27889;SDS011;15238;49.082;9.102;2023-03-21T10:03:48;2.97;;;1.30;;
27889;SDS011;15238;49.082;9.102;2023-03-21T10:05:50;3.22;;;1.10;;
27889;SDS011;15238;49.082;9.102;2023-03-21T10:07:53;3.40;;;1.13;;
27889;SDS011;15238;49.082;9.102;2023-03-21T10:10:18;2.97;;;1.75;;
27889;SDS011;15238;49.082;9.102;2023-03-21T10:12:30;5.28;;;1.40;;
27889;SDS011;15238;49.082;9.102;2023-03-21T10:14:32;3.00;;;1.17;;
27889;SDS011;15238;49.082;9.102;2023-03-21T10:16:39;3.72;;;1.42;;
27889;SDS011;15238;49.082;9.102;2023-03-21T10:18:42;3.97;;;1.15;;
27889;SDS011;15238;49.082;9.102;2023-03-21T10:20:45;2.85;;;1.15;;
27889;SDS011;15238;49.082;9.102;2023-03-21T10:22:46;5.10;;;1.38;;
27889;SDS011;15238;49.082;9.102;2023-03-21T10:24:49;3.33;;;1.30;;
27889;SDS011;15238;49.082;9.102;2023-03-21T10:26:50;5.90;;;1.42;;
27889;SDS011;15238;49.082;9.102;2023-03-21T10:28:52;3.72;;;1.23;;
27889;SDS011;15238;49.082;9.102;2023-03-21T10:30:55;3.80;;;1.13;;
27889;SDS011;15238;49.082;9.102;2023-03-21T10:33:03;2.63;;;1.08;;
27889;SDS011;15238;49.082;9.102;2023-03-21T10:35:08;4.65;;;1.45;;
27889;SDS011;15238;49.082;9.102;2023-03-21T10:37:12;3.38;;;1.20;;
27889;SDS011;15238;49.082;9.102;2023-03-21T10:39:26;6.57;;;1.23;;
27889;SDS011;15238;49.082;9.102;2023-03-21T10:41:30;2.58;;;1.05;;
27889;SDS011;15238;49.082;9.102;2023-03-21T10:43:33;2.10;;;1.00;;
27889;SDS011;15238;49.082;9.102;2023-03-21T10:45:36;3.85;;;1.27;;
27889;SDS011;15238;49.082;9.102;2023-03-21T10:47:37;2.40;;;1.05;;
27889;SDS011;15238;49.082;9.102;2023-03-21T10:49:38;3.53;;;1.17;;
27889;SDS011;15238;49.082;9.102;2023-03-21T10:51:39;2.90;;;1.27;;
27889;SDS011;15238;49.082;9.102;2023-03-21T10:53:40;2.10;;;1.25;;
27889;SDS011;15238;49.082;9.102;2023-03-21T10:55:53;2.92;;;1.00;;
27889;SDS011;15238;49.082;9.102;2023-03-21T10:57:58;1.75;;;1.02;;
27889;SDS011;15238;49.082;9.102;2023-03-21T11:00:03;5.78;;;1.25;;
27889;SDS011;15238;49.082;9.102;2023-03-21T11:02:18;1.98;;;1.00;;
27889;SDS011;15238;49.082;9.102;2023-03-21T11:04:25;3.20;;;1.40;;
27889;SDS011;15238;49.082;9.102;2023-03-21T11:06:28;4.95;;;1.15;;
27889;SDS011;15238;49.082;9.102;2023-03-21T11:08:35;5.80;;;1.20;;
27889;SDS011;15238;49.082;9.102;2023-03-21T11:13:00;4.90;;;1.20;;
27889;SDS011;15238;49.082;9.102;2023-03-21T11:17:29;6.45;;;1.27;;
27889;SDS011;15238;49.082;9.102;2023-03-21T11:19:32;3.38;;;1.02;;
27889;SDS011;15238;49.082;9.102;2023-03-21T11:21:35;4.90;;;1.23;;
27889;SDS011;15238;49.082;9.102;2023-03-21T11:23:38;2.78;;;1.23;;
27889;SDS011;15238;49.082;9.102;2023-03-21T11:25:43;2.97;;;0.82;;
27889;SDS011;15238;49.082;9.102;2023-03-21T11:27:54;2.15;;;1.00;;
27889;SDS011;15238;49.082;9.102;2023-03-21T11:29:56;2.33;;;1.17;;
27889;SDS011;15238;49.082;9.102;2023-03-21T11:32:02;5.25;;;1.30;;
27889;SDS011;15238;49.082;9.102;2023-03-21T11:34:23;2.17;;;1.00;;
27889;SDS011;15238;49.082;9.102;2023-03-21T11:36:30;1.73;;;1.10;;
27889;SDS011;15238;49.082;9.102;2023-03-21T11:38:37;3.00;;;1.10;;
27889;SDS011;15238;49.082;9.102;2023-03-21T11:40:39;4.95;;;1.30;;
27889;SDS011;15238;49.082;9.102;2023-03-21T11:45:02;2.30;;;0.90;;
27889;SDS011;15238;49.082;9.102;2023-03-21T11:47:13;3.22;;;1.35;;
27889;SDS011;15238;49.082;9.102;2023-03-21T11:49:14;5.15;;;1.38;;
27889;SDS011;15238;49.082;9.102;2023-03-21T11:51:21;1.42;;;1.13;;
27889;SDS011;15238;49.082;9.102;2023-03-21T11:53:39;5.03;;;1.83;;
27889;SDS011;15238;49.082;9.102;2023-03-21T11:58:17;2.42;;;1.23;;
27889;SDS011;15238;49.082;9.102;2023-03-21T12:00:33;7.10;;;1.58;;
27889;SDS011;15238;49.082;9.102;2023-03-21T12:07:00;2.67;;;1.50;;
27889;SDS011;15238;49.082;9.102;2023-03-21T12:09:20;1.90;;;1.40;;
27889;SDS011;15238;49.082;9.102;2023-03-21T12:14:02;2.88;;;1.50;;
27889;SDS011;15238;49.082;9.102;2023-03-21T12:18:33;3.90;;;1.92;;
27889;SDS011;15238;49.082;9.102;2023-03-21T12:25:29;7.63;;;1.80;;
27889;SDS011;15238;49.082;9.102;2023-03-21T12:27:37;4.30;;;1.45;;
27889;SDS011;15238;49.082;9.102;2023-03-21T12:30:01;4.50;;;1.73;;
27889;SDS011;15238;49.082;9.102;2023-03-21T12:39:34;4.38;;;1.70;;
27889;SDS011;15238;49.082;9.102;2023-03-21T12:41:44;4.45;;;2.00;;
27889;SDS011;15238;49.082;9.102;2023-03-21T12:43:55;3.83;;;1.70;;
27889;SDS011;15238;49.082;9.102;2023-03-21T12:49:00;5.93;;;2.20;;
27889;SDS011;15238;49.082;9.102;2023-03-21T12:51:10;4.65;;;2.67;;
27889;SDS011;15238;49.082;9.102;2023-03-21T12:55:29;7.18;;;2.35;;
27889;SDS011;15238;49.082;9.102;2023-03-21T12:57:36;4.22;;;1.90;;
27889;SDS011;15238;49.082;9.102;2023-03-21T12:59:42;6.32;;;2.35;;
27889;SDS011;15238;49.082;9.102;2023-03-21T13:02:04;4.05;;;2.08;;
27889;SDS011;15238;49.082;9.102;2023-03-21T13:04:26;13.90;;;2.10;;
27889;SDS011;15238;49.082;9.102;2023-03-21T13:06:27;3.75;;;2.45;;
27889;SDS011;15238;49.082;9.102;2023-03-21T13:08:33;3.88;;;2.17;;
27889;SDS011;15238;49.082;9.102;2023-03-21T13:10:41;8.05;;;2.03;;
27889;SDS011;15238;49.082;9.102;2023-03-21T13:17:26;6.13;;;1.88;;
27889;SDS011;15238;49.082;9.102;2023-03-21T13:19:38;3.63;;;1.90;;
27889;SDS011;15238;49.082;9.102;2023-03-21T13:24:19;4.03;;;1.98;;
27889;SDS011;15238;49.082;9.102;2023-03-21T13:26:30;5.30;;;2.40;;
27889;SDS011;15238;49.082;9.102;2023-03-21T13:28:33;5.00;;;2.08;;
27889;SDS011;15238;49.082;9.102;2023-03-21T13:30:35;7.45;;;2.03;;
27889;SDS011;15238;49.082;9.102;2023-03-21T13:32:42;4.10;;;1.77;;
27889;SDS011;15238;49.082;9.102;2023-03-21T13:34:44;6.90;;;2.10;;
27889;SDS011;15238;49.082;9.102;2023-03-21T13:36:52;5.93;;;2.05;;
27889;SDS011;15238;49.082;9.102;2023-03-21T13:39:01;4.53;;;1.90;;
27889;SDS011;15238;49.082;9.102;2023-03-21T13:45:45;4.18;;;1.80;;
27889;SDS011;15238;49.082;9.102;2023-03-21T13:52:25;9.02;;;2.28;;
27889;SDS011;15238;49.082;9.102;2023-03-21T13:54:43;5.32;;;2.17;;